St Lucie County International Airport
KFPR : rendu visible

Aérodrome :











RETROUVEZ-NOUS SUR...

 
LOGIN :

S'inscrire | Disclaimer

   EN    FR    IT 

 









Légende :    VFR   VFR Marginal   IFR   IFR Intensif   IFR Très Intensif
Visi : 
Plafond : 
>= 8 km
>= 3000ft
5 à 8 km
1000 à 3000 ft
1500m à 5 km
500 à 1000 ft
800 à 1500m
200 à 500 ft
< 800m
< 200 ft
Symboles :   Orages  Brouillard  Fortes neiges  Fortes précipitations  Vent > 20 kt






- Altitude de l'aérodrome : 24 ft
- Code IATA : FPR


KFPR - St Lucie County International

DERNIER METAR :
  • 210253Z AUTO 32007KT 10SM CLR 13/08 A3017 RMK AO2 SLP214 T01280083 51005

METARs EXPIRÉS :
  • 210153Z 32006KT 10SM CLR 13/08 A3016 RMK AO2 SLP213 T01330083
  • 210053Z 31006KT 10SM FEW030 14/08 A3016 RMK AO2 SLP213 T01390083

TAF KFPR
Valide du 21 à 00h jusqu'au 22 à 00h UTC


202333Z 2100/2124 34008KT P6SM SCT025
FM210600 33008KT P6SM BKN025
FM211300 33011KT P6SM BKN035
FM211800 33013G20KT P6SM BKN035



MET'MAP, la Météo Aéronautique d'un coup d'oeil ! - Copyright ORBIFLY Décembre 2007 - Disclaimer

ORBIFLY MET'MAP TEAM :

Programmation & Développement : Alexandra Zaïnal
Sur une idée originale de : Baudouin d'Aumeries
Assistance à la programmation : Marc-Olivier Méhu
Soutien technique & logistique : Manuel Goepfert

Contact : metmap@orbifly.com




SOURCES & CREDITS :

   NOAA       Earth
Advisory